Time;durP1;ratioP1;P1;durP2;ratioP2;P2;SDS_P1;SDS_P2;PMS_P1;PMS_P2;Temp;Humidity;BMP_temperature;BMP_pressure;BME280_temperature;BME280_humidity;BME280_pressure;Samples;Min_cycle;Max_cycle;Signal;HPM_P1;HPM_P2
2023/12/19 00:00:46;;;;;;;26.88;13.73;;;1.80;73.10;;;;;;5037630;28;20033;-60
2023/12/19 00:03:12;;;;;;;29.00;13.35;;;1.80;73.10;;;;;;5040965;28;20387;-61
2023/12/19 00:05:40;;;;;;;26.13;14.23;;;1.80;73.00;;;;;;5038623;28;20037;-61
2023/12/19 00:08:07;;;;;;;30.30;15.57;;;1.70;72.80;;;;;;5038393;28;20094;-61
2023/12/19 00:10:33;;;;;;;31.92;14.75;;;1.90;73.60;;;;;;5034388;28;20394;-61
2023/12/19 00:12:58;;;;;;;42.17;16.63;;;1.70;72.80;;;;;;5036223;28;20041;-61
2023/12/19 00:15:24;;;;;;;37.05;18.38;;;1.70;72.90;;;;;;5038315;28;20040;-61
2023/12/19 00:17:50;;;;;;;31.92;16.05;;;1.70;73.10;;;;;;5040760;28;20395;-60
2023/12/19 00:20:15;;;;;;;33.15;16.63;;;1.70;73.00;;;;;;5037510;28;20026;-61
2023/12/19 00:22:41;;;;;;;26.77;14.43;;;1.70;73.20;;;;;;5034380;28;20391;-62
2023/12/19 00:25:07;;;;;;;25.73;13.43;;;1.60;73.20;;;;;;5038536;28;20076;-60
2023/12/19 00:27:32;;;;;;;27.55;14.05;;;1.60;73.10;;;;;;5039758;28;20104;-60
2023/12/19 00:29:58;;;;;;;33.83;15.93;;;1.60;73.10;;;;;;5032203;28;20036;-60
2023/12/19 00:32:24;;;;;;;27.17;14.32;;;1.60;73.10;;;;;;5038175;28;20033;-61
2023/12/19 00:34:49;;;;;;;32.60;14.95;;;1.60;73.10;;;;;;5036938;28;20108;-60
2023/12/19 00:37:15;;;;;;;31.63;15.25;;;1.60;73.10;;;;;;5035159;28;20060;-61
2023/12/19 00:39:41;;;;;;;29.25;15.05;;;1.60;73.00;;;;;;5041497;28;20021;-59
2023/12/19 00:42:06;;;;;;;32.47;16.15;;;1.60;72.90;;;;;;5038125;28;20045;-60
2023/12/19 00:44:36;;;;;;;33.92;16.73;;;1.50;72.80;;;;;;5036206;28;20025;-62
2023/12/19 00:47:02;;;;;;;37.95;15.75;;;1.50;72.80;;;;;;4958975;28;20044;-62
2023/12/19 00:49:28;;;;;;;36.75;16.55;;;1.50;72.90;;;;;;5038956;28;20024;-60
2023/12/19 00:51:54;;;;;;;30.70;14.63;;;1.60;72.90;;;;;;5037787;28;20044;-61
2023/12/19 00:54:20;;;;;;;27.80;14.52;;;1.50;72.80;;;;;;5039314;28;20049;-61
2023/12/19 00:56:46;;;;;;;28.13;15.02;;;1.40;72.60;;;;;;5030444;28;20032;-61
2023/12/19 00:59:12;;;;;;;26.23;14.80;;;1.40;72.70;;;;;;5020266;28;20108;-60
2023/12/19 01:01:38;;;;;;;28.60;15.05;;;1.40;72.70;;;;;;5037477;28;20097;-61
2023/12/19 01:04:04;;;;;;;30.40;15.18;;;1.40;72.70;;;;;;5040916;28;20101;-60
2023/12/19 01:06:31;;;;;;;30.73;15.45;;;1.30;72.80;;;;;;5038265;28;20029;-61
2023/12/19 01:08:57;;;;;;;27.25;14.75;;;1.30;72.80;;;;;;5043514;28;20040;-61
2023/12/19 01:11:23;;;;;;;28.38;14.30;;;1.30;72.90;;;;;;5039561;28;20758;-61
2023/12/19 01:13:49;;;;;;;25.75;13.38;;;1.30;73.00;;;;;;5043416;28;20028;-61
2023/12/19 01:16:16;;;;;;;37.63;16.60;;;1.30;73.00;;;;;;5039432;28;20076;-61
2023/12/19 01:18:42;;;;;;;36.00;17.23;;;1.30;73.10;;;;;;5037536;28;20696;-61
2023/12/19 01:21:08;;;;;;;34.72;17.27;;;1.20;73.10;;;;;;5042616;28;20076;-61
2023/12/19 01:23:33;;;;;;;28.92;15.07;;;1.20;73.30;;;;;;5040836;28;20445;-60
2023/12/19 01:25:59;;;;;;;27.80;15.38;;;1.20;73.40;;;;;;5039802;28;21445;-62
2023/12/19 01:28:25;;;;;;;32.72;16.15;;;1.20;73.40;;;;;;5042552;28;20643;-61
2023/12/19 01:30:51;;;;;;;33.15;15.40;;;1.20;73.30;;;;;;5040409;28;20033;-61
2023/12/19 01:33:17;;;;;;;26.25;14.35;;;1.20;73.20;;;;;;5041774;28;20033;-59
2023/12/19 01:35:42;;;;;;;26.98;14.18;;;1.20;73.10;;;;;;5038446;28;20503;-62
2023/12/19 01:38:09;;;;;;;30.33;15.32;;;1.20;73.20;;;;;;5035178;28;20377;-62
2023/12/19 01:40:34;;;;;;;28.83;14.68;;;1.20;73.30;;;;;;5043870;28;20040;-61
2023/12/19 01:43:01;;;;;;;29.23;14.90;;;1.20;73.20;;;;;;5039564;28;20565;-61
2023/12/19 01:45:29;;;;;;;24.63;12.82;;;1.20;73.10;;;;;;4987327;28;20727;-61
2023/12/19 01:47:55;;;;;;;25.20;12.70;;;1.10;72.90;;;;;;5024145;28;20476;-61
2023/12/19 01:50:21;;;;;;;21.95;11.43;;;1.30;73.00;;;;;;5039514;28;20468;-61
2023/12/19 01:52:54;;;;;;;22.35;11.82;;;1.10;72.90;;;;;;5039248;28;20049;-61
2023/12/19 01:55:22;;;;;;;23.88;12.52;;;1.20;73.10;;;;;;5034658;28;20847;-61
2023/12/19 01:57:48;;;;;;;24.65;13.13;;;1.10;73.00;;;;;;5037704;28;20047;-60
2023/12/19 02:00:14;;;;;;;27.88;13.60;;;1.10;73.00;;;;;;5035384;28;20113;-60
2023/12/19 02:02:40;;;;;;;24.80;12.95;;;1.10;72.90;;;;;;5040098;28;20082;-60
2023/12/19 02:05:07;;;;;;;24.58;13.07;;;1.10;72.80;;;;;;5039533;28;20037;-62
2023/12/19 02:07:33;;;;;;;26.27;12.95;;;1.10;72.80;;;;;;5036032;28;20071;-62
2023/12/19 02:10:00;;;;;;;28.52;13.50;;;1.10;72.60;;;;;;5032614;28;20040;-61
2023/12/19 02:12:26;;;;;;;27.55;13.38;;;1.00;72.50;;;;;;5032650;28;20574;-61
2023/12/19 02:14:53;;;;;;;30.73;15.10;;;1.00;72.50;;;;;;5039144;28;20017;-62
2023/12/19 02:17:21;;;;;;;29.25;14.32;;;1.00;72.50;;;;;;5043407;28;20025;-61
2023/12/19 02:19:48;;;;;;;27.73;14.32;;;1.00;72.50;;;;;;5037272;28;20154;-61
2023/12/19 02:22:14;;;;;;;25.23;13.88;;;1.00;72.50;;;;;;5036431;28;20036;-61
2023/12/19 02:24:40;;;;;;;26.60;13.88;;;1.00;72.60;;;;;;5039901;28;20025;-60
2023/12/19 02:27:06;;;;;;;27.25;14.63;;;0.90;72.60;;;;;;5036256;28;20037;-61
2023/12/19 02:29:32;;;;;;;24.42;13.75;;;0.90;72.60;;;;;;5038400;28;21754;-61
2023/12/19 02:31:58;;;;;;;27.08;13.98;;;1.00;72.60;;;;;;5040393;28;20082;-62
2023/12/19 02:34:24;;;;;;;27.65;14.05;;;0.90;72.50;;;;;;5042600;28;20398;-60
2023/12/19 02:36:50;;;;;;;25.63;13.32;;;0.90;72.50;;;;;;5038512;28;20048;-61
2023/12/19 02:39:16;;;;;;;24.42;13.57;;;0.90;72.60;;;;;;5036350;28;20029;-61
2023/12/19 02:41:42;;;;;;;26.23;13.75;;;0.90;72.80;;;;;;5037770;28;20072;-62
2023/12/19 02:44:08;;;;;;;27.40;14.95;;;0.80;72.50;;;;;;5041981;28;20404;-60
2023/12/19 02:46:34;;;;;;;24.38;13.45;;;1.20;72.80;;;;;;4952267;28;20439;-62
2023/12/19 02:49:00;;;;;;;25.40;12.73;;;0.80;72.50;;;;;;5022319;28;20052;-60
2023/12/19 02:51:26;;;;;;;26.52;13.13;;;0.80;72.40;;;;;;5039293;28;20028;-62
2023/12/19 02:53:54;;;;;;;24.50;13.38;;;0.80;72.40;;;;;;5032392;28;20037;-61
2023/12/19 02:56:20;;;;;;;24.60;14.23;;;0.80;72.30;;;;;;5036761;28;20043;-62
2023/12/19 02:58:46;;;;;;;24.50;13.20;;;0.80;72.30;;;;;;5038603;28;20035;-61
2023/12/19 03:01:11;;;;;;;23.25;13.02;;;0.80;72.50;;;;;;5017624;28;20041;-60
2023/12/19 03:03:43;;;;;;;21.98;12.95;;;0.70;72.50;;;;;;5033532;28;20022;-61
2023/12/19 03:06:09;;;;;;;22.98;12.70;;;0.70;72.60;;;;;;5040961;28;20021;-61
2023/12/19 03:08:35;;;;;;;22.60;12.13;;;0.70;72.50;;;;;;5037662;28;20094;-60
2023/12/19 03:11:01;;;;;;;26.35;13.55;;;0.70;72.50;;;;;;5040547;28;20029;-60
2023/12/19 03:13:27;;;;;;;24.40;13.88;;;0.80;72.50;;;;;;5037888;28;20025;-60
2023/12/19 03:15:53;;;;;;;27.58;13.18;;;0.70;72.50;;;;;;5035778;28;20033;-62
2023/12/19 03:18:23;;;;;;;21.38;12.98;;;0.70;72.50;;;;;;5041288;28;20044;-60
2023/12/19 03:20:53;;;;;;;27.60;12.63;;;1.00;72.60;;;;;;5036472;28;20052;-61
2023/12/19 03:23:19;;;;;;;20.20;11.13;;;0.70;72.40;;;;;;5038368;28;20089;-61
2023/12/19 03:25:45;;;;;;;17.48;10.25;;;0.70;72.40;;;;;;5021548;28;20025;-61
2023/12/19 03:28:11;;;;;;;23.48;11.82;;;0.70;72.40;;;;;;5038092;28;20052;-62
2023/12/19 03:30:37;;;;;;;23.52;11.00;;;0.70;72.30;;;;;;5018205;28;20529;-61
2023/12/19 03:33:02;;;;;;;17.77;10.68;;;0.70;72.40;;;;;;5039112;28;20041;-60
2023/12/19 03:35:28;;;;;;;18.25;11.02;;;0.70;72.30;;;;;;5036675;28;20041;-61
2023/12/19 03:37:54;;;;;;;18.85;10.52;;;0.70;72.20;;;;;;5037451;28;20103;-60
2023/12/19 03:40:20;;;;;;;18.48;9.73;;;0.70;72.30;;;;;;5038693;28;20487;-61
2023/12/19 03:42:45;;;;;;;16.65;9.60;;;0.70;72.30;;;;;;5032585;28;20034;-61
2023/12/19 03:45:11;;;;;;;15.80;10.00;;;0.70;72.30;;;;;;4952025;28;20600;-60
2023/12/19 03:47:38;;;;;;;15.98;8.63;;;0.60;72.10;;;;;;5036460;28;20095;-60
2023/12/19 03:50:05;;;;;;;13.00;7.75;;;0.70;72.20;;;;;;5037530;28;20918;-60
2023/12/19 03:52:31;;;;;;;15.88;8.48;;;0.60;72.10;;;;;;5037950;28;20053;-61
2023/12/19 03:54:57;;;;;;;17.52;9.30;;;0.60;72.30;;;;;;5032930;28;20111;-60
2023/12/19 03:57:23;;;;;;;14.60;9.20;;;0.60;72.30;;;;;;5022133;28;20117;-60
2023/12/19 03:59:49;;;;;;;19.00;9.25;;;0.60;72.40;;;;;;5039280;28;20871;-62
2023/12/19 04:02:15;;;;;;;16.33;9.00;;;0.70;72.40;;;;;;5039603;28;20079;-60
2023/12/19 04:04:41;;;;;;;19.25;10.23;;;0.60;72.10;;;;;;5040753;28;20438;-60
2023/12/19 04:07:08;;;;;;;17.73;9.93;;;0.60;72.00;;;;;;5032409;28;20041;-61
2023/12/19 04:09:33;;;;;;;22.17;10.40;;;0.50;72.20;;;;;;5035893;28;20032;-60
2023/12/19 04:12:02;;;;;;;19.42;10.38;;;0.50;72.20;;;;;;5038041;28;20033;-60
2023/12/19 04:14:29;;;;;;;20.55;11.10;;;0.50;72.20;;;;;;5039767;28;20033;-62
2023/12/19 04:16:54;;;;;;;23.80;11.95;;;0.80;72.30;;;;;;5046907;28;20549;-61
2023/12/19 04:19:21;;;;;;;20.42;11.35;;;0.50;72.30;;;;;;5042542;28;20033;-61
2023/12/19 04:21:47;;;;;;;18.05;10.32;;;0.60;72.40;;;;;;5044932;28;20132;-62
2023/12/19 04:24:14;;;;;;;20.42;10.18;;;0.50;73.00;;;;;;5038968;28;20040;-60
2023/12/19 04:26:41;;;;;;;19.88;10.10;;;0.80;72.40;;;;;;5037085;28;20083;-61
2023/12/19 04:29:08;;;;;;;20.67;9.90;;;0.50;72.20;;;;;;5043628;28;20033;-60
2023/12/19 04:31:34;;;;;;;20.08;11.30;;;0.50;72.30;;;;;;5039595;28;20029;-60
2023/12/19 04:34:01;;;;;;;17.20;10.02;;;0.40;72.30;;;;;;5044596;28;20143;-60
2023/12/19 04:36:27;;;;;;;17.27;10.13;;;0.50;72.30;;;;;;5042296;28;20029;-60
2023/12/19 04:38:53;;;;;;;19.02;9.70;;;0.40;72.10;;;;;;5043005;28;20075;-60
2023/12/19 04:41:19;;;;;;;16.67;8.98;;;0.40;72.10;;;;;;5042475;28;20523;-61
2023/12/19 04:43:45;;;;;;;15.70;9.30;;;0.40;72.10;;;;;;5044508;28;20099;-61
2023/12/19 04:46:11;;;;;;;17.60;9.55;;;0.40;72.10;;;;;;5040483;28;20487;-62
2023/12/19 04:48:37;;;;;;;17.08;9.80;;;0.40;72.00;;;;;;5037738;28;20053;-60
2023/12/19 04:51:03;;;;;;;16.73;10.00;;;0.40;71.90;;;;;;5022844;28;20030;-61
2023/12/19 04:53:30;;;;;;;17.58;9.93;;;0.40;72.00;;;;;;5044651;28;20045;-61
2023/12/19 04:55:56;;;;;;;19.08;9.98;;;0.40;71.90;;;;;;5039813;28;20029;-60
2023/12/19 04:58:21;;;;;;;18.55;9.88;;;0.30;71.90;;;;;;5024056;28;20042;-61
2023/12/19 05:00:48;;;;;;;21.30;10.73;;;0.30;71.90;;;;;;5044004;28;20045;-61
2023/12/19 05:03:14;;;;;;;19.92;10.27;;;0.30;72.00;;;;;;5036663;28;20032;-60
2023/12/19 05:05:39;;;;;;;22.35;11.50;;;0.30;72.00;;;;;;5038540;28;20036;-61
2023/12/19 05:08:06;;;;;;;19.70;10.88;;;0.30;72.00;;;;;;5039932;28;20025;-61
2023/12/19 05:10:32;;;;;;;21.52;9.85;;;0.30;72.10;;;;;;5034689;28;20033;-60
2023/12/19 05:12:58;;;;;;;17.83;9.55;;;0.30;72.20;;;;;;5042942;28;20057;-60
2023/12/19 05:15:23;;;;;;;17.27;9.40;;;0.30;72.20;;;;;;5041661;28;20033;-60
2023/12/19 05:17:49;;;;;;;18.55;9.82;;;0.30;72.20;;;;;;5044105;28;20090;-62
2023/12/19 05:20:15;;;;;;;17.63;9.30;;;0.30;72.30;;;;;;5039132;28;20017;-61
2023/12/19 05:22:40;;;;;;;18.08;9.32;;;0.30;72.40;;;;;;5038861;28;20033;-60
2023/12/19 05:25:06;;;;;;;14.23;8.40;;;0.30;72.60;;;;;;5040889;28;20437;-61
2023/12/19 05:27:32;;;;;;;16.83;8.52;;;0.30;72.60;;;;;;5040923;28;20036;-60
2023/12/19 05:29:58;;;;;;;14.60;8.57;;;0.30;72.50;;;;;;5019480;28;20040;-61
2023/12/19 05:32:24;;;;;;;16.77;8.60;;;0.30;72.20;;;;;;5039012;28;20127;-62
2023/12/19 05:34:50;;;;;;;25.77;13.82;;;0.30;72.20;;;;;;5038016;28;20420;-60
2023/12/19 05:37:16;;;;;;;26.88;16.55;;;0.60;72.30;;;;;;5042915;28;20505;-60
2023/12/19 05:39:42;;;;;;;22.58;12.73;;;0.30;72.30;;;;;;5039693;28;20967;-61
2023/12/19 05:42:09;;;;;;;20.60;11.35;;;0.30;72.30;;;;;;5043405;28;20056;-61
2023/12/19 05:44:34;;;;;;;27.48;15.23;;;0.30;72.20;;;;;;5038692;28;20035;-60
2023/12/19 05:47:00;;;;;;;22.13;11.57;;;0.30;72.30;;;;;;4943687;28;20036;-60
2023/12/19 05:49:26;;;;;;;19.50;12.05;;;0.30;72.40;;;;;;5041215;28;20395;-61
2023/12/19 05:51:51;;;;;;;19.52;11.90;;;0.30;72.40;;;;;;5041684;28;20094;-61
2023/12/19 05:54:17;;;;;;;17.70;10.55;;;0.30;72.30;;;;;;5037183;28;20060;-61
2023/12/19 05:56:43;;;;;;;17.95;10.63;;;0.30;72.30;;;;;;5034527;28;20431;-61
2023/12/19 05:59:08;;;;;;;18.63;10.88;;;0.30;72.40;;;;;;5039962;28;20491;-60
2023/12/19 06:01:42;;;;;;;24.35;12.00;;;0.30;72.30;;;;;;5023020;28;20521;-60
2023/12/19 06:04:07;;;;;;;15.07;8.60;;;0.30;72.30;;;;;;5039824;28;20769;-60
2023/12/19 06:06:34;;;;;;;21.38;12.55;;;0.30;72.20;;;;;;5039739;28;20029;-60
2023/12/19 06:09:00;;;;;;;19.02;10.98;;;0.30;72.30;;;;;;5039893;28;20120;-61
2023/12/19 06:11:27;;;;;;;19.35;10.95;;;0.30;72.40;;;;;;5042823;28;20144;-62
2023/12/19 06:13:52;;;;;;;22.65;11.57;;;0.30;72.50;;;;;;5042092;28;20025;-61
2023/12/19 06:16:19;;;;;;;20.58;11.70;;;0.30;72.40;;;;;;5039148;28;20049;-60
2023/12/19 06:18:45;;;;;;;18.52;10.45;;;0.30;72.50;;;;;;5038443;28;20487;-61
2023/12/19 06:21:10;;;;;;;19.67;11.52;;;0.50;72.70;;;;;;5034790;28;20056;-62
2023/12/19 06:23:36;;;;;;;16.98;9.60;;;0.20;72.50;;;;;;5041628;28;20032;-60
2023/12/19 06:26:02;;;;;;;19.27;10.40;;;0.30;72.40;;;;;;5038492;28;20056;-61
2023/12/19 06:28:27;;;;;;;16.85;10.07;;;0.20;72.30;;;;;;5036788;28;20025;-62
2023/12/19 06:30:53;;;;;;;16.98;9.98;;;0.20;72.20;;;;;;5037648;28;20083;-60
2023/12/19 06:33:19;;;;;;;19.90;10.50;;;0.20;72.10;;;;;;5024385;28;20033;-59
2023/12/19 06:35:49;;;;;;;18.63;10.55;;;0.20;72.20;;;;;;5039835;28;20067;-61
2023/12/19 06:38:14;;;;;;;16.05;10.13;;;0.20;72.40;;;;;;5037242;28;20412;-61
2023/12/19 06:40:40;;;;;;;19.00;10.32;;;0.20;72.40;;;;;;5020680;28;20128;-60
2023/12/19 06:43:10;;;;;;;20.85;10.50;;;0.20;72.50;;;;;;5038159;28;20768;-59
2023/12/19 06:45:36;;;;;;;18.98;10.30;;;0.10;72.40;;;;;;4948189;28;20032;-60
2023/12/19 06:48:03;;;;;;;21.15;10.85;;;0.20;72.40;;;;;;5039858;28;20056;-60
2023/12/19 06:50:29;;;;;;;15.88;9.88;;;0.10;72.30;;;;;;5023198;28;20043;-61
2023/12/19 06:52:54;;;;;;;20.17;10.45;;;0.10;72.20;;;;;;5040884;28;20445;-60
2023/12/19 06:55:21;;;;;;;18.85;9.65;;;0.10;72.20;;;;;;5021107;28;20454;-61
2023/12/19 06:57:47;;;;;;;16.73;10.02;;;0.10;72.20;;;;;;5042096;28;20475;-60
2023/12/19 07:00:13;;;;;;;19.42;10.65;;;0.10;72.10;;;;;;5041156;28;20841;-60
2023/12/19 07:02:39;;;;;;;17.23;10.38;;;0.10;72.10;;;;;;5040802;28;20667;-60
2023/12/19 07:05:05;;;;;;;17.83;9.85;;;0.10;72.20;;;;;;5039241;28;20411;-61
2023/12/19 07:07:31;;;;;;;17.08;9.68;;;0.00;72.20;;;;;;5040267;28;20033;-59
2023/12/19 07:09:56;;;;;;;23.73;9.57;;;0.00;72.20;;;;;;5032787;28;20086;-60
2023/12/19 07:12:22;;;;;;;19.15;10.65;;;0.10;72.30;;;;;;5036188;28;20036;-60
2023/12/19 07:14:48;;;;;;;15.85;9.13;;;0.00;72.80;;;;;;5017520;28;20032;-61
2023/12/19 07:17:14;;;;;;;22.70;11.57;;;0.20;72.00;;;;;;5035641;28;20040;-60
2023/12/19 07:19:43;;;;;;;21.02;11.25;;;0.00;72.00;;;;;;5035201;28;21902;-62
2023/12/19 07:22:09;;;;;;;21.33;10.95;;;0.10;71.90;;;;;;5034180;28;20033;-61
2023/12/19 07:24:35;;;;;;;17.33;9.85;;;0.30;72.00;;;;;;5042840;28;20047;-60
2023/12/19 07:27:00;;;;;;;16.67;10.02;;;0.00;71.90;;;;;;5037443;28;20381;-62
2023/12/19 07:29:26;;;;;;;21.65;9.85;;;0.10;71.90;;;;;;5017482;28;20029;-63
2023/12/19 07:31:52;;;;;;;18.20;11.05;;;0.00;72.00;;;;;;5034980;28;20056;-61
2023/12/19 07:34:18;;;;;;;20.02;10.48;;;0.00;72.00;;;;;;5040746;28;20039;-61
2023/12/19 07:36:45;;;;;;;20.63;10.82;;;0.10;72.10;;;;;;5039589;28;20032;-61
2023/12/19 07:39:11;;;;;;;18.77;9.80;;;0.10;72.20;;;;;;5040138;28;20033;-63
2023/12/19 07:41:37;;;;;;;24.50;12.02;;;0.10;72.20;;;;;;5040161;28;20040;-63
2023/12/19 07:44:09;;;;;;;22.42;11.48;;;0.10;72.20;;;;;;5036220;28;20037;-62
2023/12/19 07:46:41;;;;;;;27.25;11.65;;;0.10;72.50;;;;;;4947304;28;20029;-62
2023/12/19 07:49:09;;;;;;;22.45;11.25;;;0.20;72.60;;;;;;5037895;28;20069;-61
2023/12/19 07:51:35;;;;;;;22.05;11.30;;;0.30;72.60;;;;;;5037339;28;20079;-62
2023/12/19 07:54:01;;;;;;;19.45;11.63;;;0.20;72.50;;;;;;5039144;28;20048;-62
2023/12/19 07:56:26;;;;;;;19.95;10.32;;;0.30;72.50;;;;;;5040945;28;20032;-61
2023/12/19 07:58:53;;;;;;;21.48;10.35;;;0.30;72.60;;;;;;5036250;28;20108;-61
2023/12/19 08:01:18;;;;;;;19.13;9.93;;;0.40;72.60;;;;;;5040175;28;20041;-61
2023/12/19 08:03:45;;;;;;;18.77;9.70;;;0.40;72.70;;;;;;5038829;28;20048;-61
2023/12/19 08:06:11;;;;;;;18.88;10.18;;;0.50;72.80;;;;;;5038512;28;20040;-61
2023/12/19 08:08:37;;;;;;;20.15;10.30;;;0.70;73.00;;;;;;5036989;28;20487;-61
2023/12/19 08:11:03;;;;;;;21.70;11.07;;;0.60;73.10;;;;;;5040373;28;20114;-61
2023/12/19 08:13:29;;;;;;;15.25;9.35;;;0.60;73.10;;;;;;5034296;28;20108;-61
2023/12/19 08:15:54;;;;;;;17.52;9.98;;;0.80;73.40;;;;;;5038193;28;20032;-62
2023/12/19 08:18:20;;;;;;;24.48;10.90;;;1.10;73.60;;;;;;5039087;28;20029;-61
2023/12/19 08:20:46;;;;;;;84.10;30.65;;;1.00;73.60;;;;;;5020535;28;20029;-62
2023/12/19 08:23:12;;;;;;;61.17;27.80;;;1.10;73.70;;;;;;5040044;28;20037;-62
2023/12/19 08:25:41;;;;;;;41.42;20.52;;;1.10;73.70;;;;;;5038048;28;20039;-61
2023/12/19 08:28:10;;;;;;;32.58;16.88;;;1.20;73.80;;;;;;5021739;28;20060;-62
2023/12/19 08:30:37;;;;;;;45.30;21.50;;;1.30;73.80;;;;;;5038685;28;20057;-61
2023/12/19 08:33:03;;;;;;;50.28;26.63;;;1.40;73.90;;;;;;5004766;28;20029;-62
2023/12/19 08:35:29;;;;;;;53.10;24.90;;;1.50;74.00;;;;;;5039515;28;20525;-61
2023/12/19 08:37:55;;;;;;;58.75;26.98;;;1.60;73.90;;;;;;5038212;28;20365;-61
2023/12/19 08:40:21;;;;;;;56.30;27.08;;;1.70;73.80;;;;;;5039019;28;20095;-61
2023/12/19 08:42:48;;;;;;;55.13;26.55;;;1.90;73.90;;;;;;5041110;28;20052;-62
2023/12/19 08:45:26;;;;;;;55.85;24.08;;;2.00;73.70;;;;;;4923644;28;20125;-62
2023/12/19 08:47:53;;;;;;;41.80;20.95;;;2.20;73.70;;;;;;5040591;28;20029;-61
2023/12/19 08:50:19;;;;;;;38.15;19.02;;;2.30;73.60;;;;;;5021468;28;20025;-62
2023/12/19 08:52:45;;;;;;;29.27;15.80;;;2.40;73.50;;;;;;5032989;28;20038;-62
2023/12/19 08:55:11;;;;;;;23.85;13.75;;;2.60;73.50;;;;;;5036816;28;20126;-62
2023/12/19 08:57:41;;;;;;;18.77;11.93;;;2.70;73.40;;;;;;5041574;28;20021;-62
2023/12/19 09:00:12;;;;;;;22.27;12.82;;;2.80;73.30;;;;;;5043385;28;20028;-61
2023/12/19 09:02:41;;;;;;;24.38;12.05;;;2.90;73.10;;;;;;5043938;28;20601;-61
2023/12/19 09:05:07;;;;;;;22.02;12.82;;;3.10;73.00;;;;;;5022024;28;20037;-61
2023/12/19 09:07:33;;;;;;;19.52;12.23;;;3.20;72.80;;;;;;5039367;28;20103;-61
2023/12/19 09:09:59;;;;;;;24.60;14.20;;;3.30;72.70;;;;;;5039861;28;20463;-61
2023/12/19 09:12:24;;;;;;;30.88;17.90;;;3.40;72.60;;;;;;5041244;28;20753;-61
2023/12/19 09:14:50;;;;;;;23.48;14.63;;;3.50;72.50;;;;;;5041865;28;20036;-61
2023/12/19 09:17:16;;;;;;;24.05;13.38;;;3.60;72.40;;;;;;5035976;28;20390;-62
2023/12/19 09:19:42;;;;;;;21.45;13.90;;;3.70;72.40;;;;;;5039585;28;20017;-61
2023/12/19 09:22:07;;;;;;;43.97;23.63;;;3.80;72.30;;;;;;5038329;28;20042;-62
2023/12/19 09:24:33;;;;;;;47.20;29.25;;;3.90;72.10;;;;;;5039127;28;20087;-62
2023/12/19 09:26:59;;;;;;;59.67;29.95;;;4.00;72.00;;;;;;5045625;28;20044;-62
2023/12/19 09:29:26;;;;;;;96.60;43.85;;;4.10;71.80;;;;;;5041959;28;20086;-62
2023/12/19 09:31:52;;;;;;;52.58;29.52;;;4.10;71.70;;;;;;5044316;28;20048;-62
2023/12/19 09:34:18;;;;;;;55.42;28.73;;;4.20;71.70;;;;;;5020523;28;20707;-63
2023/12/19 09:36:45;;;;;;;30.95;17.67;;;4.30;71.50;;;;;;5041366;28;20032;-62
2023/12/19 09:39:14;;;;;;;25.65;14.15;;;4.40;71.50;;;;;;5040133;28;20160;-62
2023/12/19 09:41:42;;;;;;;23.25;14.10;;;4.50;71.50;;;;;;5022461;28;20048;-61
2023/12/19 09:44:08;;;;;;;23.55;14.00;;;4.60;71.40;;;;;;5039748;28;20396;-61
2023/12/19 09:46:34;;;;;;;26.98;13.90;;;4.70;71.30;;;;;;5040639;28;20023;-61
2023/12/19 09:49:02;;;;;;;30.13;14.18;;;4.70;71.10;;;;;;5042694;28;20499;-63
2023/12/19 09:51:32;;;;;;;33.72;14.63;;;4.80;71.10;;;;;;5024559;28;20091;-62
2023/12/19 09:54:01;;;;;;;29.23;13.60;;;4.90;71.10;;;;;;5036941;28;20052;-61
2023/12/19 09:56:28;;;;;;;39.25;16.20;;;5.00;71.20;;;;;;5039575;28;20037;-61
2023/12/19 09:59:00;;;;;;;30.10;14.95;;;5.10;71.20;;;;;;5020052;28;20108;-62
2023/12/19 10:01:26;;;;;;;24.65;13.73;;;5.20;71.20;;;;;;5037936;28;20620;-61
2023/12/19 10:03:55;;;;;;;27.02;13.57;;;5.30;71.30;;;;;;5042506;28;20021;-62
2023/12/19 10:06:22;;;;;;;21.85;12.88;;;5.30;71.10;;;;;;5035496;28;20045;-61
2023/12/19 10:08:53;;;;;;;22.08;12.48;;;5.40;71.00;;;;;;5036986;28;20033;-62
2023/12/19 10:11:24;;;;;;;21.65;12.50;;;5.50;71.10;;;;;;5023584;28;20025;-62
2023/12/19 10:13:50;;;;;;;23.02;12.15;;;5.60;71.10;;;;;;5040616;28;20765;-62
2023/12/19 10:16:19;;;;;;;22.25;12.43;;;5.70;71.20;;;;;;5039805;28;20131;-62
2023/12/19 10:18:53;;;;;;;17.90;11.35;;;5.80;71.30;;;;;;5038039;28;20026;-62
2023/12/19 10:21:23;;;;;;;19.35;12.20;;;5.90;71.10;;;;;;5040729;28;20472;-61
2023/12/19 10:23:48;;;;;;;16.60;10.43;;;6.00;71.10;;;;;;5036160;28;20510;-62
2023/12/19 10:26:15;;;;;;;16.27;10.43;;;6.20;71.10;;;;;;5043831;28;20852;-62
2023/12/19 10:28:41;;;;;;;17.30;10.15;;;6.30;71.00;;;;;;5039984;28;20561;-63
2023/12/19 10:31:06;;;;;;;15.45;10.30;;;6.40;70.90;;;;;;5035218;28;20037;-62
2023/12/19 10:33:46;;;;;;;16.50;10.57;;;6.50;70.80;;;;;;5038994;28;20104;-62
2023/12/19 10:36:23;;;;;;;14.60;9.55;;;6.60;70.30;;;;;;5040874;28;20040;-61
2023/12/19 10:38:49;;;;;;;18.55;10.80;;;6.70;70.20;;;;;;5037950;28;20395;-63
2023/12/19 10:41:29;;;;;;;15.68;9.73;;;6.80;70.50;;;;;;5041355;28;20041;-62
2023/12/19 10:43:57;;;;;;;16.98;10.07;;;6.90;70.20;;;;;;5032292;28;20028;-62
2023/12/19 10:46:27;;;;;;;19.35;10.10;;;7.10;70.10;;;;;;4967272;28;20025;-62
2023/12/19 10:48:54;;;;;;;15.95;9.75;;;7.20;69.90;;;;;;5042110;28;20029;-62
2023/12/19 10:51:29;;;;;;;15.65;9.68;;;7.30;69.70;;;;;;5042940;28;20494;-61
2023/12/19 10:54:06;;;;;;;16.13;10.02;;;7.30;69.20;;;;;;5038035;28;20128;-62
2023/12/19 10:57:00;;;;;;;14.88;9.07;;;7.40;69.50;;;;;;5039237;28;20086;-62
2023/12/19 10:59:50;;;;;;;16.20;9.68;;;7.50;69.30;;;;;;5038165;28;20114;-63
2023/12/19 11:02:19;;;;;;;13.13;9.00;;;7.60;69.40;;;;;;5015620;28;20098;-63
2023/12/19 11:04:51;;;;;;;52.22;28.92;;;7.70;69.50;;;;;;5039927;28;20068;-63
2023/12/19 11:07:18;;;;;;;42.67;21.42;;;7.80;69.30;;;;;;5038455;28;20037;-61
2023/12/19 11:09:49;;;;;;;22.45;13.65;;;7.90;69.70;;;;;;5033719;28;20071;-61
2023/12/19 11:12:16;;;;;;;17.92;11.20;;;8.00;69.20;;;;;;5015417;28;20497;-62
2023/12/19 11:14:42;;;;;;;12.57;8.40;;;8.10;69.10;;;;;;5040935;28;20021;-61
2023/12/19 11:17:26;;;;;;;12.10;7.80;;;8.20;68.90;;;;;;5036590;28;20585;-63
2023/12/19 11:20:09;;;;;;;14.27;8.70;;;8.30;68.20;;;;;;5036433;28;20091;-61
2023/12/19 11:22:40;;;;;;;16.40;9.10;;;8.40;68.00;;;;;;5040373;28;20060;-64
2023/12/19 11:25:29;;;;;;;12.70;7.75;;;8.40;67.90;;;;;;5038475;28;20029;-63
2023/12/19 11:28:00;;;;;;;10.25;7.18;;;8.50;67.80;;;;;;5040696;28;20078;-62
2023/12/19 11:30:37;;;;;;;14.52;8.25;;;8.50;67.80;;;;;;5038455;28;20034;-62
2023/12/19 11:33:13;;;;;;;14.00;8.32;;;8.60;67.10;;;;;;5036911;28;20029;-63
2023/12/19 11:35:41;;;;;;;10.70;7.68;;;8.60;66.90;;;;;;5038152;28;20147;-62
2023/12/19 11:38:17;;;;;;;11.13;7.32;;;8.60;67.30;;;;;;5039180;28;20083;-62
2023/12/19 11:40:48;;;;;;;13.65;8.55;;;8.60;66.80;;;;;;5035549;28;20031;-62
2023/12/19 11:43:35;;;;;;;15.15;10.05;;;8.70;67.00;;;;;;5034186;28;20027;-63
2023/12/19 11:46:04;;;;;;;14.20;9.68;;;8.70;66.30;;;;;;4981786;28;20373;-63
2023/12/19 11:48:36;;;;;;;11.60;7.85;;;8.70;66.80;;;;;;5039167;28;20033;-62
2023/12/19 11:51:07;;;;;;;17.42;9.13;;;8.70;66.60;;;;;;5040809;28;20037;-63
2023/12/19 11:53:37;;;;;;;14.57;9.00;;;8.60;66.70;;;;;;5041955;28;20426;-62
2023/12/19 11:56:11;;;;;;;15.77;9.05;;;8.60;66.60;;;;;;5035632;28;20025;-62
2023/12/19 11:58:47;;;;;;;13.10;8.23;;;8.60;66.70;;;;;;5043493;28;20035;-62
2023/12/19 12:01:14;;;;;;;13.38;7.32;;;8.60;66.30;;;;;;5035217;28;20052;-62
2023/12/19 12:03:39;;;;;;;11.10;7.07;;;8.60;66.70;;;;;;5041890;28;20116;-61
2023/12/19 12:06:07;;;;;;;12.20;7.40;;;8.60;66.70;;;;;;5038204;28;20119;-62
2023/12/19 12:08:32;;;;;;;19.20;6.68;;;8.60;66.80;;;;;;5040976;28;20521;-63
2023/12/19 12:10:59;;;;;;;8.25;6.53;;;8.60;66.80;;;;;;5038735;28;20116;-61
2023/12/19 12:13:29;;;;;;;13.00;6.85;;;8.60;66.90;;;;;;5036973;28;20030;-62
2023/12/19 12:15:59;;;;;;;11.13;7.15;;;8.60;66.90;;;;;;5040532;28;20152;-63
2023/12/19 12:18:26;;;;;;;11.82;7.28;;;8.60;66.90;;;;;;5035711;28;20583;-62
2023/12/19 12:20:54;;;;;;;13.10;8.00;;;8.60;67.00;;;;;;5037101;28;20082;-62
2023/12/19 12:23:20;;;;;;;10.05;7.03;;;8.60;67.00;;;;;;5043080;28;20044;-62
2023/12/19 12:25:58;;;;;;;11.30;7.35;;;8.60;67.10;;;;;;5035842;28;20029;-62
2023/12/19 12:28:28;;;;;;;11.32;6.93;;;8.70;66.70;;;;;;5041295;28;20560;-62
2023/12/19 12:30:59;;;;;;;12.48;7.47;;;8.70;67.10;;;;;;5018386;28;20052;-62
2023/12/19 12:33:26;;;;;;;12.07;7.25;;;8.70;67.00;;;;;;5039137;28;20033;-62
2023/12/19 12:35:52;;;;;;;11.32;7.78;;;8.80;67.10;;;;;;5041553;28;20412;-63
2023/12/19 12:38:19;;;;;;;11.80;7.00;;;8.80;66.80;;;;;;5045668;28;20032;-62
2023/12/19 12:40:56;;;;;;;9.65;6.78;;;8.90;66.60;;;;;;5042272;28;20029;-62